PORT of IERAPETRA

Land: Greece Land: Greece (GR)
Latitude / Longitude: 35.005° / 25.738° Toon op kaart Toon op kaart
Lokale Tijd:  UTC +3
UN/LOCODE: GRIER

Recente Aankomst- en Vertrektijden


Scheepsnaam
Aankomst (UTC)
Aankomst (LT)
Vertrek (UTC)
Vertrek (LT)
Vessel Type: Passagiersboot  BALOS EXPRES 2014-09-15 14:17:00 2014-09-15 17:17:00 2014-09-18 08:01:00 2014-09-18 11:01:00
Vessel Type: Passagiersboot  BALOS EXPRES 2014-09-13 14:48:00 2014-09-13 17:48:00 2014-09-14 08:13:00 2014-09-14 11:13:00
Vessel Type: Passagiersboot  BALOS EXPRES 2014-09-13 14:06:00 2014-09-13 17:06:00 2014-09-13 14:32:00 2014-09-13 17:32:00
Vessel Type: Passagiersboot  BALOS EXPRES 2014-09-11 14:42:00 2014-09-11 17:42:00 2014-09-13 08:12:00 2014-09-13 11:12:00
Vessel Type: Passagiersboot  BALOS EXPRES 2014-09-11 14:08:00 2014-09-11 17:08:00 2014-09-11 14:38:00 2014-09-11 17:38:00
Vessel Type: Passagiersboot  BALOS EXPRES 2014-09-06 14:28:00 2014-09-06 17:28:00 2014-09-07 08:18:00 2014-09-07 11:18:00
Vessel Type: Passagiersboot  BALOS EXPRES 2014-09-05 15:19:00 2014-09-05 18:19:00 2014-09-06 05:59:00 2014-09-06 08:59:00
Vessel Type: Passagiersboot  BALOS EXPRES 2014-09-04 14:21:00 2014-09-04 17:21:00 2014-09-04 14:49:00 2014-09-04 17:49:00
Vessel Type: Passagiersboot  BALOS EXPRES 2014-09-01 14:12:00 2014-09-01 17:12:00 2014-09-02 07:07:00 2014-09-02 10:07:00
Vessel Type: Passagiersboot  BALOS EXPRES 2014-08-31 14:35:00 2014-08-31 17:35:00 2014-09-01 08:13:00 2014-09-01 11:13:00

Verwachte aankomsten


Scheepsnaam
Scheduled Arrival (UTC)
Geplande Aankomst (lokale tijd)
Geschatte Aankomsttijd (UTC)
Geschatte Aankomsttijd (Lokaal)
Geen gegevens gevonden

Wind Forecast


    
Tijd (UTC)
Snelheid
Direction
Temperature
2014-09-21 12:00:00 8 knots 242° 24°C
2014-09-21 15:00:00 8 knots 340° 25°C
2014-09-21 18:00:00 7 knots 331° 25°C
2014-09-21 21:00:00 9 knots 351° 25°C
2014-09-22 00:00:00 8 knots 347° 24°C
2014-09-22 03:00:00 4 knots 337° 24°C
2014-09-22 06:00:00 4 knots 287° 24°C
2014-09-22 09:00:00 8 knots 235° 25°C
2014-09-22 12:00:00 11 knots 341° 25°C
2014-09-22 15:00:00 10 knots 331° 25°C
2014-09-22 18:00:00 10 knots 256° 25°C
2014-09-22 21:00:00 9 knots 264° 25°C
2014-09-23 00:00:00 8 knots 283° 25°C
2014-09-23 03:00:00 5 knots 284° 25°C
2014-09-23 06:00:00 4 knots 272° 25°C
2014-09-23 09:00:00 10 knots 235° 27°C
2014-09-23 12:00:00 15 knots 245° 27°C

NO_PHOTO

No Photos for this port. Be the first to upload one!